METAR AND TAF INFORMATION
METAR FOR KBOS
KBOS 230454Z 18006KT 10SM -RA FEW012 FEW045 BKN120 OVC250 23/21 A3004 RMK AO2 SLP171 P0001 T02280211 402720172
KBOS 230354Z 19006KT 10SM -RA FEW045 BKN100 OVC250 23/21 A3005 RMK AO2 RAB10 SLP175 P0000 T02330211
KBOS 230254Z 19007KT 10SM BKN110 OVC250 23/19 A3006 RMK AO2 SLP178 T02330189 50010
KBOS 230520Z 2306/2412 18005KT P6SM -SHRA OVC012
FM230900 16005KT P6SM VCSH OVC020
FM231400 07006KT P6SM BKN015
FM232200 11006KT P6SM SCT035
FM240200 11005KT 5SM BR VCSH BKN025

 AIRPORT MAP

 RUNWAY INFORMATION
Runway 04L Runway length 7861 ft Runway width 150 ft
Runway elevation 14 ft Runway displaced threshold 0 ft Runway heading 20
Runway 22R Runway length 7861 ft Runway width 150 ft
Runway elevation 15 ft Runway displaced threshold 815 ft Runway heading 200
Runway 04R Runway length 10005 ft Runway width 150 ft
Runway elevation 18 ft Runway displaced threshold 1154 ft Runway heading 20
Runway 22L Runway length 10005 ft Runway width 150 ft
Runway elevation 16 ft Runway displaced threshold 1199 ft Runway heading 200
Runway 09 Runway length 7000 ft Runway width 150 ft
Runway elevation 17 ft Runway displaced threshold 0 ft Runway heading 77
Runway 27 Runway length 7000 ft Runway width 150 ft
Runway elevation 15 ft Runway displaced threshold 0 ft Runway heading 257
Runway 14 Runway length 5000 ft Runway width 100 ft
Runway elevation 17 ft Runway displaced threshold 0 ft Runway heading 125
Runway 32 Runway length 5000 ft Runway width 100 ft
Runway elevation 20 ft Runway displaced threshold 0 ft Runway heading 305
Runway 15L Runway length 2557 ft Runway width 100 ft
Runway elevation 15 ft Runway displaced threshold 0 ft Runway heading 135
Runway 33R Runway length 2557 ft Runway width 100 ft
Runway elevation 14 ft Runway displaced threshold 0 ft Runway heading 315
Runway 15R Runway length 10083 ft Runway width 150 ft
Runway elevation 17 ft Runway displaced threshold 880 ft Runway heading 135
Runway 33L Runway length 10083 ft Runway width 150 ft
Runway elevation 15 ft Runway displaced threshold 0 ft Runway heading 315

 AIRPORT FREQUENCIES
Type APP Name BOSTON APP Frequency 118.25 MHZ
Type ATIS Name ATIS Frequency 135 MHZ
Type CLD Name CLNC DEL Frequency 121.65 MHZ
Type DEP Name BOSTON DEP Frequency 133 MHZ
Type GND Name GND Frequency 121.9 MHZ
Type GTE Name GATE Frequency 134.05 MHZ
Type RDO Name BRIDGEPORT Frequency 122.4 MHZ
Type TWR Name BOSTON TWR Frequency 124.725 MHZ
Type UNIC Name UNICOM Frequency 122.95 MHZ

 AIRPORT NEAR NAVIGATION AIDS
Type NDB Name Miltt Frequency 375 KHZ
Type VORTAC Name Boston Frequency 112700 KHZ
Type NDB Name Hullz Frequency 346 KHZ
Type NDB Name Lyndy Frequency 382 KHZ

-